Time;durP1;ratioP1;P1;durP2;ratioP2;P2;SDS_P1;SDS_P2;PMS_P1;PMS_P2;Temp;Humidity;BMP_temperature;BMP_pressure;BME280_temperature;BME280_humidity;BME280_pressure;Samples;Min_cycle;Max_cycle;Signal;HPM_P1;HPM_P2
2023/11/29 00:02:00;;;;;;;5.47;2.92;;;;;;;;;;5067321;27;20067;-66
2023/11/29 00:04:27;;;;;;;4.80;2.20;;;;;;;;;;5079199;28;20050;-66
2023/11/29 00:06:53;;;;;;;5.22;2.35;;;;;;;;;;5069107;28;20112;-66
2023/11/29 00:09:20;;;;;;;7.47;3.20;;;;;;;;;;5080815;28;20217;-65
2023/11/29 00:11:49;;;;;;;7.95;3.15;;;;;;;;;;5072201;28;20306;-65
2023/11/29 00:14:16;;;;;;;;;;;;;;;;;;5057783;28;20052;-65
2023/11/29 00:16:42;;;;;;;6.68;2.95;;;;;;;;;;5050044;28;19995;-64
2023/11/29 00:19:09;;;;;;;5.03;2.60;;;;;;;;;;5055177;28;20060;-64
2023/11/29 00:21:41;;;;;;;6.82;2.58;;;;;;;;;;5053199;28;20055;-64
2023/11/29 00:24:08;;;;;;;4.57;2.30;;;;;;;;;;5039855;28;20267;-63
2023/11/29 00:26:35;;;;;;;7.43;2.75;;;;;;;;;;5058588;28;20053;-64
2023/11/29 00:29:03;;;;;;;7.50;2.40;;;;;;;;;;5059040;28;20066;-64
2023/11/29 00:31:30;;;;;;;4.88;2.22;;;;;;;;;;5079469;28;20064;-65
2023/11/29 00:33:57;;;;;;;5.55;2.42;;;;;;;;;;5064443;28;20052;-64
2023/11/29 00:36:24;;;;;;;6.22;2.20;;;;;;;;;;5052724;28;20135;-65
2023/11/29 00:38:51;;;;;;;4.03;1.73;;;;;;;;;;5057160;28;20048;-66
2023/11/29 00:41:18;;;;;;;6.88;1.77;;;;;;;;;;5060142;28;20064;-66
2023/11/29 00:43:45;;;;;;;7.57;1.92;;;;;;;;;;5054902;28;20055;-64
2023/11/29 00:46:13;;;;;;;2.50;1.30;;;;;;;;;;5076846;28;20071;-65
2023/11/29 00:48:40;;;;;;;2.88;1.33;;;;;;;;;;5071880;28;20574;-65
2023/11/29 00:51:07;;;;;;;3.22;1.48;;;;;;;;;;5065097;28;20067;-67
2023/11/29 00:53:34;;;;;;;4.03;1.55;;;;;;;;;;5066933;28;20052;-65
2023/11/29 00:56:00;;;;;;;2.70;1.42;;;;;;;;;;5049145;28;20052;-66
2023/11/29 00:58:27;;;;;;;3.33;1.40;;;;;;;;;;5076492;28;20052;-65
2023/11/29 01:00:54;;;;;;;5.60;1.75;;;;;;;;;;5068711;28;20044;-65
2023/11/29 01:03:22;;;;;;;3.42;1.75;;;;;;;;;;5078799;28;20040;-66
2023/11/29 01:05:49;;;;;;;2.60;1.48;;;;;;;;;;5061808;28;20052;-64
2023/11/29 01:08:16;;;;;;;4.90;1.92;;;;;;;;;;5062760;28;20097;-65
2023/11/29 01:10:43;;;;;;;4.53;1.75;;;;;;;;;;5074575;28;20409;-65
2023/11/29 01:13:09;;;;;;;4.97;2.22;;;;;;;;;;5078234;28;20510;-65
2023/11/29 01:15:36;;;;;;;4.47;1.85;;;;;;;;;;5067307;28;20121;-63
2023/11/29 01:18:03;;;;;;;4.28;1.90;;;;;;;;;;5057998;28;20060;-65
2023/11/29 01:20:31;;;;;;;2.35;1.50;;;;;;;;;;5067813;28;20048;-64
2023/11/29 01:22:58;;;;;;;5.38;2.40;;;;;;;;;;5066214;28;20060;-65
2023/11/29 01:25:25;;;;;;;5.13;2.20;;;;;;;;;;5062902;28;20060;-65
2023/11/29 01:27:51;;;;;;;4.57;2.20;;;;;;;;;;5060194;28;20060;-65
2023/11/29 01:30:18;;;;;;;3.95;2.13;;;;;;;;;;5063109;28;20059;-64
2023/11/29 01:32:45;;;;;;;3.70;2.10;;;;;;;;;;5062100;28;20056;-65
2023/11/29 01:35:12;;;;;;;7.55;2.70;;;;;;;;;;5063071;28;20056;-64
2023/11/29 01:37:40;;;;;;;4.43;1.98;;;;;;;;;;5056817;28;20098;-64
2023/11/29 01:40:09;;;;;;;4.20;2.00;;;;;;;;;;5054451;28;20256;-64
2023/11/29 01:42:35;;;;;;;;;;;;;;;;;;5043834;28;20115;-64
2023/11/29 01:45:03;;;;;;;2.53;1.42;;;;;;;;;;5055944;28;19931;-65
2023/11/29 01:47:33;;;;;;;7.55;2.13;;;;;;;;;;5072544;28;20055;-64
2023/11/29 01:50:01;;;;;;;3.08;1.42;;;;;;;;;;5062454;28;20055;-64
2023/11/29 01:52:29;;;;;;;4.25;1.58;;;;;;;;;;5077994;28;20059;-63
2023/11/29 01:54:59;;;;;;;2.77;1.10;;;;;;;;;;5067642;28;20147;-63
2023/11/29 01:57:26;;;;;;;3.50;1.75;;;;;;;;;;5066101;28;20047;-63
2023/11/29 01:59:54;;;;;;;3.33;1.48;;;;;;;;;;5062831;28;20079;-66
2023/11/29 02:02:21;;;;;;;2.20;1.17;;;;;;;;;;5067875;28;20056;-64
2023/11/29 02:04:48;;;;;;;3.07;1.50;;;;;;;;;;5078627;28;20063;-63
2023/11/29 02:07:15;;;;;;;3.15;1.30;;;;;;;;;;5067512;28;20084;-64
2023/11/29 02:09:42;;;;;;;2.47;1.35;;;;;;;;;;5074949;28;20044;-63
2023/11/29 02:12:11;;;;;;;2.30;1.20;;;;;;;;;;5078951;28;20260;-63
2023/11/29 02:14:40;;;;;;;2.90;1.42;;;;;;;;;;5066268;28;20052;-64
2023/11/29 02:17:07;;;;;;;2.83;1.35;;;;;;;;;;5048005;28;20051;-63
2023/11/29 02:19:34;;;;;;;3.65;1.38;;;;;;;;;;5042233;28;20061;-64
2023/11/29 02:22:01;;;;;;;3.03;1.35;;;;;;;;;;5041549;28;20056;-64
2023/11/29 02:24:33;;;;;;;2.30;1.35;;;;;;;;;;5044350;28;20060;-66
2023/11/29 02:27:01;;;;;;;2.47;1.27;;;;;;;;;;5056529;28;20083;-63
2023/11/29 02:29:28;;;;;;;4.20;1.65;;;;;;;;;;5056322;28;20135;-64
2023/11/29 02:31:55;;;;;;;3.22;1.55;;;;;;;;;;5062188;28;20044;-63
2023/11/29 02:34:22;;;;;;;3.92;1.33;;;;;;;;;;5067947;28;20052;-63
2023/11/29 02:36:49;;;;;;;3.55;1.58;;;;;;;;;;5067341;28;20052;-63
2023/11/29 02:39:15;;;;;;;4.82;1.50;;;;;;;;;;5074932;28;20071;-64
2023/11/29 02:41:42;;;;;;;4.50;1.33;;;;;;;;;;5075521;28;20056;-63
2023/11/29 02:44:11;;;;;;;3.45;1.60;;;;;;;;;;5058537;28;20307;-61
2023/11/29 02:46:37;;;;;;;2.47;1.58;;;;;;;;;;5055535;28;20060;-65
2023/11/29 02:49:04;;;;;;;3.85;1.50;;;;;;;;;;5060919;28;20071;-65
2023/11/29 02:51:31;;;;;;;3.25;1.67;;;;;;;;;;5064470;28;20065;-65
2023/11/29 02:53:58;;;;;;;3.63;1.65;;;;;;;;;;5062198;28;20061;-66
2023/11/29 02:56:25;;;;;;;2.05;1.17;;;;;;;;;;5065793;28;20056;-65
2023/11/29 02:58:51;;;;;;;3.35;1.73;;;;;;;;;;5062236;28;20064;-65
2023/11/29 03:01:20;;;;;;;3.90;1.88;;;;;;;;;;5066532;28;20112;-65
2023/11/29 03:03:47;;;;;;;5.35;1.95;;;;;;;;;;5038312;28;20057;-63
2023/11/29 03:06:14;;;;;;;3.80;1.60;;;;;;;;;;5046955;28;20048;-62
2023/11/29 03:08:41;;;;;;;4.72;2.25;;;;;;;;;;5051979;28;20049;-63
2023/11/29 03:11:09;;;;;;;12.73;2.53;;;;;;;;;;5045062;28;20045;-64
2023/11/29 03:13:35;;;;;;;7.03;2.50;;;;;;;;;;5039435;28;20060;-63
2023/11/29 03:16:02;;;;;;;5.30;2.13;;;;;;;;;;5051341;28;20053;-64
2023/11/29 03:18:31;;;;;;;6.32;2.60;;;;;;;;;;5056219;28;20058;-65
2023/11/29 03:20:57;;;;;;;4.60;2.05;;;;;;;;;;5058302;28;20048;-65
2023/11/29 03:23:24;;;;;;;3.67;2.00;;;;;;;;;;5050838;28;20057;-64
2023/11/29 03:25:53;;;;;;;5.55;2.38;;;;;;;;;;5066494;28;20118;-65
2023/11/29 03:28:20;;;;;;;5.03;1.85;;;;;;;;;;5062675;28;20556;-65
2023/11/29 03:30:47;;;;;;;4.75;2.03;;;;;;;;;;5078240;28;20056;-66
2023/11/29 03:33:14;;;;;;;4.40;1.95;;;;;;;;;;5076853;28;20099;-64
2023/11/29 03:35:42;;;;;;;4.43;1.90;;;;;;;;;;5066982;28;20044;-63
2023/11/29 03:38:09;;;;;;;3.70;1.80;;;;;;;;;;5058405;28;20052;-62
2023/11/29 03:40:36;;;;;;;5.45;1.92;;;;;;;;;;5069123;28;20056;-64
2023/11/29 03:43:02;;;;;;;3.38;2.00;;;;;;;;;;5074721;28;20060;-63
2023/11/29 03:45:29;;;;;;;7.72;1.67;;;;;;;;;;5058100;28;20132;-64
2023/11/29 03:47:56;;;;;;;4.53;2.15;;;;;;;;;;5072766;28;20052;-64
2023/11/29 03:50:23;;;;;;;6.20;2.10;;;;;;;;;;5066643;28;20060;-64
2023/11/29 03:52:51;;;;;;;5.28;1.85;;;;;;;;;;5071819;28;20048;-64
2023/11/29 03:55:18;;;;;;;5.80;2.17;;;;;;;;;;5061234;28;20048;-65
2023/11/29 03:57:45;;;;;;;5.25;2.10;;;;;;;;;;5066756;28;20158;-64
2023/11/29 04:00:14;;;;;;;4.78;2.47;;;;;;;;;;5056805;28;20055;-64
2023/11/29 04:02:40;;;;;;;;;;;;;;;;;;5078078;28;20051;-63
2023/11/29 04:05:08;;;;;;;3.80;1.88;;;;;;;;;;5086139;28;19920;-64
2023/11/29 04:07:34;;;;;;;5.55;2.42;;;;;;;;;;5073958;28;20115;-66
2023/11/29 04:10:03;;;;;;;3.95;1.98;;;;;;;;;;5051224;28;20048;-63
2023/11/29 04:12:29;;;;;;;3.67;2.13;;;;;;;;;;5072297;28;20052;-62
2023/11/29 04:14:56;;;;;;;4.22;2.10;;;;;;;;;;5063156;28;20064;-63
2023/11/29 04:17:23;;;;;;;3.83;1.85;;;;;;;;;;5070423;28;20061;-62
2023/11/29 04:19:50;;;;;;;3.95;1.67;;;;;;;;;;5074303;28;20067;-66
2023/11/29 04:22:16;;;;;;;3.30;1.35;;;;;;;;;;5073875;28;20060;-64
2023/11/29 04:24:43;;;;;;;3.80;1.55;;;;;;;;;;5055948;28;20204;-65
2023/11/29 04:27:11;;;;;;;8.63;1.55;;;;;;;;;;5047783;28;20045;-65
2023/11/29 04:29:38;;;;;;;4.03;1.73;;;;;;;;;;5050591;28;20464;-66
2023/11/29 04:32:05;;;;;;;2.60;1.38;;;;;;;;;;5034382;28;21319;-63
2023/11/29 04:34:32;;;;;;;3.10;1.40;;;;;;;;;;5047712;28;20049;-66
2023/11/29 04:36:59;;;;;;;5.13;1.67;;;;;;;;;;5053701;28;20052;-66
2023/11/29 04:39:26;;;;;;;3.47;1.52;;;;;;;;;;5043255;28;20075;-63
2023/11/29 04:41:53;;;;;;;3.70;1.50;;;;;;;;;;5051463;28;20072;-64
2023/11/29 04:44:21;;;;;;;3.67;1.55;;;;;;;;;;5034315;28;20060;-64
2023/11/29 04:46:48;;;;;;;3.42;1.77;;;;;;;;;;5051417;28;20060;-63
2023/11/29 04:49:15;;;;;;;4.72;2.20;;;;;;;;;;5049551;28;20045;-65
2023/11/29 04:51:42;;;;;;;6.50;2.67;;;;;;;;;;5045489;28;20049;-64
2023/11/29 04:54:09;;;;;;;2.63;1.15;;;;;;;;;;5041569;28;20332;-64
2023/11/29 04:56:35;;;;;;;4.15;1.30;;;;;;;;;;5055541;28;20060;-63
2023/11/29 04:59:02;;;;;;;2.30;1.35;;;;;;;;;;5056328;28;20052;-64
2023/11/29 05:01:30;;;;;;;4.32;1.48;;;;;;;;;;5052323;28;20067;-63
2023/11/29 05:03:57;;;;;;;2.88;1.13;;;;;;;;;;5050878;28;20047;-63
2023/11/29 05:06:25;;;;;;;3.47;1.23;;;;;;;;;;5065789;28;20055;-63
2023/11/29 05:08:52;;;;;;;4.75;1.20;;;;;;;;;;5065389;28;20338;-63
2023/11/29 05:11:18;;;;;;;2.15;1.02;;;;;;;;;;5069419;28;20147;-63
2023/11/29 05:13:45;;;;;;;5.72;2.53;;;;;;;;;;5062227;28;20091;-64
2023/11/29 05:16:12;;;;;;;2.40;1.33;;;;;;;;;;5065703;28;20048;-64
2023/11/29 05:18:40;;;;;;;3.30;1.30;;;;;;;;;;5067646;28;20059;-63
2023/11/29 05:21:08;;;;;;;1.98;1.10;;;;;;;;;;5073407;28;20147;-63
2023/11/29 05:23:34;;;;;;;0.77;0.63;;;;;;;;;;5065053;28;20049;-63
2023/11/29 05:26:02;;;;;;;4.93;0.75;;;;;;;;;;5053459;28;20367;-64
2023/11/29 05:28:29;;;;;;;3.70;0.47;;;;;;;;;;5041916;28;20052;-63
2023/11/29 05:30:55;;;;;;;1.85;0.65;;;;;;;;;;5065269;28;20562;-64
2023/11/29 05:33:23;;;;;;;2.17;0.65;;;;;;;;;;5059305;28;20074;-64
2023/11/29 05:35:53;;;;;;;3.13;1.45;;;;;;;;;;5060212;28;20062;-64
2023/11/29 05:38:20;;;;;;;5.63;1.27;;;;;;;;;;5060555;28;20129;-63
2023/11/29 05:40:46;;;;;;;0.90;0.50;;;;;;;;;;5066643;28;20045;-63
2023/11/29 05:43:13;;;;;;;2.38;0.43;;;;;;;;;;5072680;28;20048;-63
2023/11/29 05:45:40;;;;;;;0.98;0.50;;;;;;;;;;5054952;28;20036;-62
2023/11/29 05:48:07;;;;;;;1.13;0.60;;;;;;;;;;5063005;28;20048;-63
2023/11/29 05:50:35;;;;;;;0.85;0.47;;;;;;;;;;5064388;28;20052;-65
2023/11/29 05:53:03;;;;;;;1.57;0.60;;;;;;;;;;5060634;28;20048;-62
2023/11/29 05:55:31;;;;;;;7.20;2.67;;;;;;;;;;5041846;28;20049;-63
2023/11/29 05:57:57;;;;;;;2.72;0.95;;;;;;;;;;5041198;28;20067;-63
2023/11/29 06:00:24;;;;;;;1.13;0.50;;;;;;;;;;5042655;28;20126;-64
2023/11/29 06:02:51;;;;;;;0.20;0.20;;;;;;;;;;5046861;28;20056;-63
2023/11/29 06:05:18;;;;;;;1.42;0.47;;;;;;;;;;5050469;28;20075;-63
2023/11/29 06:07:46;;;;;;;3.50;1.50;;;;;;;;;;5060373;28;20060;-63
2023/11/29 06:10:15;;;;;;;2.20;1.13;;;;;;;;;;5051899;28;20072;-63
2023/11/29 06:12:42;;;;;;;9.88;2.78;;;;;;;;;;5076788;28;20079;-63
2023/11/29 06:15:09;;;;;;;2.28;0.70;;;;;;;;;;5057606;28;20052;-63
2023/11/29 06:17:36;;;;;;;2.97;1.20;;;;;;;;;;5057052;28;20087;-64
2023/11/29 06:20:04;;;;;;;0.45;0.30;;;;;;;;;;5052236;28;20062;-62
2023/11/29 06:22:32;;;;;;;5.88;0.40;;;;;;;;;;5060935;28;20147;-64
2023/11/29 06:24:59;;;;;;;1.95;0.30;;;;;;;;;;5050245;28;20049;-64
2023/11/29 06:27:29;;;;;;;2.08;0.30;;;;;;;;;;5070154;28;20123;-64
2023/11/29 06:29:57;;;;;;;1.67;0.47;;;;;;;;;;5058697;28;20076;-63
2023/11/29 06:32:24;;;;;;;1.07;0.40;;;;;;;;;;5070894;28;20447;-63
2023/11/29 06:34:52;;;;;;;0.73;0.45;;;;;;;;;;5055884;28;20052;-62
2023/11/29 06:37:19;;;;;;;0.15;0.15;;;;;;;;;;5061548;28;20048;-62
2023/11/29 06:39:46;;;;;;;3.28;0.55;;;;;;;;;;5068317;28;20074;-63
2023/11/29 06:42:14;;;;;;;0.68;0.30;;;;;;;;;;5053794;28;20055;-63
2023/11/29 06:44:42;;;;;;;1.08;0.30;;;;;;;;;;5054504;28;20044;-62
2023/11/29 06:47:09;;;;;;;0.10;0.10;;;;;;;;;;5067015;28;20053;-62
2023/11/29 06:49:35;;;;;;;1.10;0.40;;;;;;;;;;5068075;28;20060;-62
2023/11/29 06:52:03;;;;;;;0.30;0.20;;;;;;;;;;5054176;28;20062;-61
2023/11/29 06:54:30;;;;;;;1.25;0.50;;;;;;;;;;5064478;28;20064;-62
2023/11/29 06:56:57;;;;;;;1.33;0.40;;;;;;;;;;5062090;28;20044;-63
2023/11/29 06:59:24;;;;;;;1.08;0.32;;;;;;;;;;5067759;28;20114;-62
2023/11/29 07:01:52;;;;;;;1.75;0.40;;;;;;;;;;5071916;28;20297;-64
2023/11/29 07:04:19;;;;;;;2.53;0.20;;;;;;;;;;5068422;28;21942;-64
2023/11/29 07:06:46;;;;;;;1.65;0.30;;;;;;;;;;5059396;28;20044;-62
2023/11/29 07:09:16;;;;;;;0.25;0.25;;;;;;;;;;5052108;28;20045;-62
2023/11/29 07:11:43;;;;;;;2.17;0.55;;;;;;;;;;5054460;28;20056;-65
2023/11/29 07:14:09;;;;;;;3.80;0.52;;;;;;;;;;5044020;28;20048;-64
2023/11/29 07:16:36;;;;;;;0.93;0.20;;;;;;;;;;5053094;28;20143;-64
2023/11/29 07:19:10;;;;;;;1.33;0.30;;;;;;;;;;5046051;28;20061;-63
2023/11/29 07:21:37;;;;;;;0.50;0.20;;;;;;;;;;5053108;28;20162;-64
2023/11/29 07:24:05;;;;;;;0.93;0.40;;;;;;;;;;5045316;28;20060;-63
2023/11/29 07:26:32;;;;;;;1.05;0.35;;;;;;;;;;5075565;28;20051;-63
2023/11/29 07:28:59;;;;;;;2.45;0.40;;;;;;;;;;5082980;28;20557;-63
2023/11/29 07:31:26;;;;;;;2.95;0.47;;;;;;;;;;5095044;28;20087;-63
2023/11/29 07:33:53;;;;;;;0.30;0.30;;;;;;;;;;5052858;28;20048;-65
2023/11/29 07:36:21;;;;;;;1.35;0.45;;;;;;;;;;5063726;28;20052;-62
2023/11/29 07:38:59;;;;;;;0.38;0.20;;;;;;;;;;5066344;28;20036;-64
2023/11/29 07:41:26;;;;;;;0.20;0.20;;;;;;;;;;5069162;27;20055;-64
2023/11/29 07:43:53;;;;;;;0.90;0.43;;;;;;;;;;5054076;28;20052;-62
2023/11/29 07:46:26;;;;;;;2.50;0.30;;;;;;;;;;5055658;28;20429;-62
2023/11/29 07:48:53;;;;;;;0.57;0.50;;;;;;;;;;5066537;28;20087;-62
2023/11/29 07:51:22;;;;;;;1.40;0.50;;;;;;;;;;5062806;28;20059;-64
2023/11/29 07:53:53;;;;;;;1.42;0.60;;;;;;;;;;5062114;28;20142;-63
2023/11/29 07:56:20;;;;;;;1.33;0.47;;;;;;;;;;5052538;28;20048;-63
2023/11/29 07:58:47;;;;;;;3.10;0.50;;;;;;;;;;5061155;28;20053;-62
2023/11/29 08:01:14;;;;;;;1.85;0.60;;;;;;;;;;5071038;28;20045;-62
2023/11/29 08:03:41;;;;;;;0.45;0.40;;;;;;;;;;5054705;28;20044;-64
2023/11/29 08:06:09;;;;;;;0.57;0.35;;;;;;;;;;5072043;28;20144;-61
2023/11/29 08:08:37;;;;;;;1.20;0.55;;;;;;;;;;5059361;28;20059;-63
2023/11/29 08:11:04;;;;;;;2.10;0.85;;;;;;;;;;5065425;28;20055;-61
2023/11/29 08:13:32;;;;;;;0.30;0.25;;;;;;;;;;5066771;28;20147;-61
2023/11/29 08:15:59;;;;;;;0.40;0.30;;;;;;;;;;5064547;28;20056;-62
2023/11/29 08:18:26;;;;;;;3.60;0.50;;;;;;;;;;5071122;28;20055;-62
2023/11/29 08:20:53;;;;;;;2.45;0.75;;;;;;;;;;5072226;28;20109;-62
2023/11/29 08:23:20;;;;;;;2.25;0.70;;;;;;;;;;5077347;28;20050;-63
2023/11/29 08:25:48;;;;;;;1.33;0.68;;;;;;;;;;5050936;28;20053;-63
2023/11/29 08:28:15;;;;;;;2.40;0.85;;;;;;;;;;5046888;28;20103;-64
2023/11/29 08:30:42;;;;;;;1.65;0.68;;;;;;;;;;5055464;28;20113;-63
2023/11/29 08:33:09;;;;;;;2.67;0.68;;;;;;;;;;5048116;28;20064;-63
2023/11/29 08:35:38;;;;;;;1.92;0.70;;;;;;;;;;5064870;28;20059;-63
2023/11/29 08:38:05;;;;;;;1.17;0.70;;;;;;;;;;5074023;28;20036;-63
2023/11/29 08:40:32;;;;;;;2.03;0.82;;;;;;;;;;5063642;28;20251;-62
2023/11/29 08:43:00;;;;;;;1.58;0.73;;;;;;;;;;5070959;28;20048;-62
2023/11/29 08:45:27;;;;;;;2.28;1.00;;;;;;;;;;5057167;28;20052;-62
2023/11/29 08:47:54;;;;;;;1.83;0.77;;;;;;;;;;5054292;28;20143;-65
2023/11/29 08:50:20;;;;;;;3.90;0.80;;;;;;;;;;5065574;28;20048;-62
2023/11/29 08:52:49;;;;;;;3.28;1.00;;;;;;;;;;5060719;28;20129;-62
2023/11/29 08:55:16;;;;;;;1.02;0.63;;;;;;;;;;5057721;28;20060;-64
2023/11/29 08:57:43;;;;;;;1.23;0.93;;;;;;;;;;5062502;28;20104;-64
2023/11/29 09:00:12;;;;;;;2.15;0.75;;;;;;;;;;5064766;28;20048;-62
2023/11/29 09:02:39;;;;;;;1.85;0.90;;;;;;;;;;5063949;28;20105;-61
2023/11/29 09:05:06;;;;;;;2.60;1.00;;;;;;;;;;5064564;28;20059;-62
2023/11/29 09:07:36;;;;;;;2.53;1.10;;;;;;;;;;5057594;28;20060;-63
2023/11/29 09:10:05;;;;;;;;;;;;;;;;;;5034831;28;20071;-63
2023/11/29 09:12:32;;;;;;;5.80;0.80;;;;;;;;;;5065503;28;19925;-62
2023/11/29 09:14:59;;;;;;;2.95;1.10;;;;;;;;;;5055113;28;20048;-63
2023/11/29 09:17:30;;;;;;;1.17;0.73;;;;;;;;;;5084142;28;20056;-63
2023/11/29 09:19:57;;;;;;;2.88;1.02;;;;;;;;;;5077344;28;20052;-64
2023/11/29 09:22:24;;;;;;;2.10;0.88;;;;;;;;;;5075468;28;20062;-63
2023/11/29 09:24:51;;;;;;;1.92;0.75;;;;;;;;;;5059824;28;20056;-62
2023/11/29 09:27:18;;;;;;;1.38;0.80;;;;;;;;;;5069865;28;20067;-61
2023/11/29 09:29:45;;;;;;;2.88;1.05;;;;;;;;;;5058924;28;20040;-62
2023/11/29 09:32:12;;;;;;;2.72;1.08;;;;;;;;;;5054293;28;20036;-62
2023/11/29 09:34:40;;;;;;;4.30;1.20;;;;;;;;;;5062796;28;20040;-62
2023/11/29 09:37:07;;;;;;;2.47;1.00;;;;;;;;;;5074706;28;20052;-62
2023/11/29 09:39:34;;;;;;;1.90;0.95;;;;;;;;;;5068351;28;20125;-62
2023/11/29 09:42:02;;;;;;;2.00;0.75;;;;;;;;;;5068334;28;20048;-62
2023/11/29 09:44:30;;;;;;;1.55;0.93;;;;;;;;;;5062228;28;20058;-64
2023/11/29 09:46:58;;;;;;;3.13;1.17;;;;;;;;;;5070103;28;20094;-64
2023/11/29 09:49:32;;;;;;;2.20;1.00;;;;;;;;;;5078993;28;20040;-65
2023/11/29 09:52:00;;;;;;;0.95;0.75;;;;;;;;;;5091566;28;20044;-63
2023/11/29 09:54:27;;;;;;;2.25;0.90;;;;;;;;;;5054467;28;20144;-64
2023/11/29 09:56:54;;;;;;;2.97;1.10;;;;;;;;;;5042640;28;20115;-64
2023/11/29 09:59:23;;;;;;;7.22;1.10;;;;;;;;;;5056181;28;20432;-62
2023/11/29 10:01:54;;;;;;;1.80;0.90;;;;;;;;;;5053856;28;20140;-64
2023/11/29 10:04:25;;;;;;;4.10;1.13;;;;;;;;;;5035541;28;20057;-63
2023/11/29 10:06:52;;;;;;;;;;;;;;;;;;5049698;28;20060;-64
2023/11/29 10:09:21;;;;;;;3.00;0.95;;;;;;;;;;5070337;28;19925;-62
2023/11/29 10:11:48;;;;;;;4.30;1.30;;;;;;;;;;5053990;28;20048;-63
2023/11/29 10:14:15;;;;;;;2.92;1.25;;;;;;;;;;5050531;28;20052;-63
2023/11/29 10:16:42;;;;;;;6.15;1.02;;;;;;;;;;5073857;28;20101;-63
2023/11/29 10:19:11;;;;;;;3.47;1.05;;;;;;;;;;5070695;28;20040;-62
2023/11/29 10:21:40;;;;;;;3.10;1.17;;;;;;;;;;5069677;28;20052;-63
2023/11/29 10:24:07;;;;;;;3.03;1.30;;;;;;;;;;5059229;28;20198;-62
2023/11/29 10:26:35;;;;;;;2.92;1.30;;;;;;;;;;5055818;28;20040;-62
2023/11/29 10:29:02;;;;;;;5.95;1.50;;;;;;;;;;5049646;28;20068;-62
2023/11/29 10:31:31;;;;;;;4.93;1.40;;;;;;;;;;5057585;28;20055;-62
2023/11/29 10:33:58;;;;;;;3.03;1.15;;;;;;;;;;5045338;28;20059;-64
2023/11/29 10:36:27;;;;;;;4.00;1.20;;;;;;;;;;5069116;28;20193;-62
2023/11/29 10:39:06;;;;;;;5.85;1.63;;;;;;;;;;5075864;28;20059;-62
2023/11/29 10:41:38;;;;;;;4.03;1.27;;;;;;;;;;5078181;28;20147;-62
2023/11/29 10:44:07;;;;;;;2.28;0.95;;;;;;;;;;5057623;28;20052;-63
2023/11/29 10:46:36;;;;;;;12.32;1.38;;;;;;;;;;5054860;28;20086;-63
2023/11/29 10:49:09;;;;;;;2.13;1.10;;;;;;;;;;5073735;28;20120;-62
2023/11/29 10:51:36;;;;;;;5.20;1.40;;;;;;;;;;5048545;28;20037;-63
2023/11/29 10:54:06;;;;;;;5.85;1.50;;;;;;;;;;5035879;28;20140;-62
2023/11/29 10:56:33;;;;;;;4.18;1.10;;;;;;;;;;5054815;28;20112;-64
2023/11/29 10:59:13;;;;;;;2.38;1.20;;;;;;;;;;5051792;28;20143;-65
2023/11/29 11:01:43;;;;;;;2.55;0.95;;;;;;;;;;5055299;28;20049;-63
2023/11/29 11:04:11;;;;;;;4.57;1.35;;;;;;;;;;5038564;28;20162;-64
2023/11/29 11:06:41;;;;;;;3.55;1.08;;;;;;;;;;5049954;28;20132;-64
2023/11/29 11:09:31;;;;;;;2.63;1.08;;;;;;;;;;5053784;28;20453;-64
2023/11/29 11:12:29;;;;;;;2.53;1.05;;;;;;;;;;5040199;28;20045;-64
2023/11/29 11:14:59;;;;;;;3.65;1.10;;;;;;;;;;5039074;28;20061;-64
2023/11/29 11:17:27;;;;;;;6.93;1.20;;;;;;;;;;5049951;28;20055;-63
2023/11/29 11:19:56;;;;;;;3.33;1.20;;;;;;;;;;5045932;28;20136;-63
2023/11/29 11:22:32;;;;;;;4.90;1.45;;;;;;;;;;5052029;28;20053;-63
2023/11/29 11:25:02;;;;;;;4.55;1.38;;;;;;;;;;5049263;28;20052;-64
2023/11/29 11:27:39;;;;;;;2.83;1.42;;;;;;;;;;5054863;28;20072;-64
2023/11/29 11:30:42;;;;;;;5.05;1.25;;;;;;;;;;5052249;28;20049;-63
2023/11/29 11:33:11;;;;;;;2.10;1.08;;;;;;;;;;5053687;28;20097;-64
2023/11/29 11:35:38;;;;;;;2.60;1.15;;;;;;;;;;5068748;28;20087;-64
2023/11/29 11:38:07;;;;;;;4.13;1.20;;;;;;;;;;5065019;28;20068;-62
2023/11/29 11:40:36;;;;;;;4.15;1.27;;;;;;;;;;5064748;28;20316;-62
2023/11/29 11:43:03;;;;;;;;;;;;;;;;;;5062068;28;20056;-62
2023/11/29 11:45:32;;;;;;;2.47;1.00;;;;;;;;;;5060392;28;19973;-63
2023/11/29 11:48:01;;;;;;;5.05;1.23;;;;;;;;;;5064550;28;20056;-64
2023/11/29 11:50:28;;;;;;;6.60;1.40;;;;;;;;;;5075146;28;20067;-62
2023/11/29 11:52:59;;;;;;;6.03;1.40;;;;;;;;;;5070450;28;20351;-63
2023/11/29 11:55:27;;;;;;;1.85;1.05;;;;;;;;;;5048014;28;20087;-63
2023/11/29 11:57:55;;;;;;;;;;;;;;;;;;5052430;28;20045;-62
2023/11/29 12:00:23;;;;;;;3.50;1.13;;;;;;;;;;5051449;28;19924;-62
2023/11/29 12:02:51;;;;;;;2.20;1.00;;;;;;;;;;5056036;28;20048;-63
2023/11/29 12:05:21;;;;;;;3.77;1.30;;;;;;;;;;5058285;28;20067;-63
2023/11/29 12:07:50;;;;;;;3.70;1.23;;;;;;;;;;5067693;28;20045;-62
2023/11/29 12:10:18;;;;;;;4.68;1.30;;;;;;;;;;5072942;28;20051;-62
2023/11/29 12:12:46;;;;;;;4.88;1.17;;;;;;;;;;5076873;28;20109;-63
2023/11/29 12:15:16;;;;;;;2.42;1.00;;;;;;;;;;5054737;28;20051;-64
2023/11/29 12:17:44;;;;;;;1.55;0.85;;;;;;;;;;5050479;28;20052;-62
2023/11/29 12:20:12;;;;;;;3.80;1.20;;;;;;;;;;5053856;28;20044;-62
2023/11/29 12:22:42;;;;;;;3.90;1.00;;;;;;;;;;5051011;28;20160;-62
2023/11/29 12:25:14;;;;;;;1.00;0.82;;;;;;;;;;5053857;28;20076;-62
2023/11/29 12:27:44;;;;;;;6.78;1.42;;;;;;;;;;5060453;28;20056;-63
2023/11/29 12:30:12;;;;;;;2.75;1.15;;;;;;;;;;5058223;28;20056;-62
2023/11/29 12:32:40;;;;;;;4.88;1.05;;;;;;;;;;5084432;28;20047;-63
2023/11/29 12:35:08;;;;;;;3.17;1.42;;;;;;;;;;5062555;28;20056;-62
2023/11/29 12:37:35;;;;;;;;;;;;;;;;;;5058655;28;20479;-64
2023/11/29 12:40:05;;;;;;;3.05;1.10;;;;;;;;;;5042878;28;19960;-63
2023/11/29 12:42:34;;;;;;;4.00;0.95;;;;;;;;;;5044958;28;20053;-62
2023/11/29 12:45:01;;;;;;;1.95;1.02;;;;;;;;;;5043146;28;20056;-61
2023/11/29 12:47:31;;;;;;;2.80;1.02;;;;;;;;;;5055457;28;20139;-62
2023/11/29 12:50:10;;;;;;;0.98;0.50;;;;;;;;;;5055594;28;20145;-65
2023/11/29 12:52:40;;;;;;;2.38;0.88;;;;;;;;;;5056277;28;20519;-62
2023/11/29 12:55:11;;;;;;;2.58;0.82;;;;;;;;;;5025184;28;20052;-64
2023/11/29 12:57:38;;;;;;;5.55;1.00;;;;;;;;;;5053247;28;20064;-65
2023/11/29 13:00:09;;;;;;;5.13;1.25;;;;;;;;;;5047086;28;20044;-63
2023/11/29 13:02:37;;;;;;;1.98;0.98;;;;;;;;;;5044715;28;20139;-63
2023/11/29 13:05:04;;;;;;;1.67;0.88;;;;;;;;;;5065242;28;20163;-62
2023/11/29 13:07:31;;;;;;;1.60;0.90;;;;;;;;;;5063515;28;20048;-62
2023/11/29 13:09:58;;;;;;;2.42;0.82;;;;;;;;;;5061019;28;20056;-63
2023/11/29 13:12:27;;;;;;;2.47;1.00;;;;;;;;;;5066005;28;20068;-62
2023/11/29 13:14:54;;;;;;;4.30;1.13;;;;;;;;;;5055004;28;20056;-62
2023/11/29 13:17:22;;;;;;;4.60;1.40;;;;;;;;;;5074350;28;20227;-62
2023/11/29 13:19:50;;;;;;;3.00;1.15;;;;;;;;;;5077613;28;20056;-62
2023/11/29 13:22:20;;;;;;;5.13;1.10;;;;;;;;;;5064063;28;20111;-62
2023/11/29 13:24:49;;;;;;;2.08;0.80;;;;;;;;;;5049424;28;20059;-62
2023/11/29 13:27:16;;;;;;;7.70;0.98;;;;;;;;;;5062836;28;20047;-62
2023/11/29 13:29:45;;;;;;;3.13;1.25;;;;;;;;;;5057151;28;20045;-63
2023/11/29 13:32:14;;;;;;;2.65;1.08;;;;;;;;;;5053556;28;20040;-63
2023/11/29 13:34:41;;;;;;;2.83;0.80;;;;;;;;;;5050896;28;20036;-63
2023/11/29 13:37:09;;;;;;;1.45;0.65;;;;;;;;;;5075888;28;20057;-61
2023/11/29 13:39:35;;;;;;;1.70;0.90;;;;;;;;;;5075873;28;20065;-65
2023/11/29 13:42:02;;;;;;;2.65;0.52;;;;;;;;;;5074140;28;20044;-62
2023/11/29 13:44:34;;;;;;;1.15;0.65;;;;;;;;;;5061424;28;20045;-62
2023/11/29 13:47:12;;;;;;;2.67;0.75;;;;;;;;;;5060937;28;20056;-62
2023/11/29 13:49:44;;;;;;;1.38;0.57;;;;;;;;;;5048961;28;20044;-62
2023/11/29 13:52:16;;;;;;;1.35;0.60;;;;;;;;;;5051020;28;20052;-62
2023/11/29 13:54:43;;;;;;;3.38;0.70;;;;;;;;;;5055753;28;20040;-61
2023/11/29 13:57:10;;;;;;;1.50;0.70;;;;;;;;;;5057552;28;20056;-62
2023/11/29 13:59:37;;;;;;;4.15;1.00;;;;;;;;;;5062371;28;20040;-62
2023/11/29 14:02:12;;;;;;;1.58;0.70;;;;;;;;;;5058178;28;20140;-62
2023/11/29 14:04:45;;;;;;;1.08;0.80;;;;;;;;;;5058773;28;20048;-63
2023/11/29 14:07:17;;;;;;;2.97;0.80;;;;;;;;;;5056156;28;20061;-62
2023/11/29 14:09:50;;;;;;;1.15;0.68;;;;;;;;;;5056836;28;20099;-64
2023/11/29 14:12:33;;;;;;;1.60;0.90;;;;;;;;;;5060062;28;20075;-63
2023/11/29 14:15:04;;;;;;;1.73;0.70;;;;;;;;;;5062354;28;20086;-62
2023/11/29 14:17:33;;;;;;;4.05;0.98;;;;;;;;;;5074977;28;20121;-62
2023/11/29 14:20:01;;;;;;;1.20;0.85;;;;;;;;;;5058031;28;20052;-63
2023/11/29 14:22:28;;;;;;;;;;;;;;;;;;5074991;28;20141;-61
2023/11/29 14:24:58;;;;;;;2.47;0.85;;;;;;;;;;5062167;28;19928;-66
2023/11/29 14:27:24;;;;;;;1.65;0.90;;;;;;;;;;5070777;28;20063;-61
2023/11/29 14:29:52;;;;;;;1.40;0.90;;;;;;;;;;5057703;28;20064;-62
2023/11/29 14:32:20;;;;;;;2.10;0.90;;;;;;;;;;5075948;28;20056;-62
2023/11/29 14:34:48;;;;;;;2.60;1.40;;;;;;;;;;5056606;28;20071;-61
2023/11/29 14:37:15;;;;;;;2.63;1.08;;;;;;;;;;5044571;28;20118;-62
2023/11/29 14:39:42;;;;;;;3.22;1.15;;;;;;;;;;5062337;28;20048;-63
2023/11/29 14:42:09;;;;;;;2.75;0.85;;;;;;;;;;5056038;28;20233;-62
2023/11/29 14:44:36;;;;;;;1.45;0.80;;;;;;;;;;5059706;28;20049;-62
2023/11/29 14:47:03;;;;;;;3.53;0.82;;;;;;;;;;5056960;28;20067;-62
2023/11/29 14:49:31;;;;;;;4.05;1.20;;;;;;;;;;5046136;28;20063;-61
2023/11/29 14:52:00;;;;;;;2.25;1.15;;;;;;;;;;5054420;28;20052;-63